createdAt,value
2023-02-22T00:01:01.921Z,99242.00
2023-02-22T00:02:11.534Z,99241.06
2023-02-22T00:03:25.895Z,99240.97
2023-02-22T00:04:30.408Z,99238.81
2023-02-22T00:05:36.511Z,99235.69
2023-02-22T00:06:40.627Z,99234.63
2023-02-22T00:07:53.169Z,99233.53
2023-02-22T00:08:58.002Z,99242.47
2023-02-22T00:10:02.335Z,99236.06
2023-02-22T00:11:11.459Z,99231.72
2023-02-22T00:12:17.049Z,99237.56
2023-02-22T00:13:29.511Z,99230.41
2023-02-22T00:14:34.661Z,99239.09
2023-02-22T00:15:45.659Z,99251.47
2023-02-22T00:16:54.706Z,99236.53
2023-02-22T00:17:58.837Z,99246.09
2023-02-22T00:19:02.405Z,99249.66
2023-02-22T00:20:21.266Z,99243.53
2023-02-22T00:21:27.982Z,99245.41
2023-02-22T00:22:31.581Z,99247.03
2023-02-22T00:23:35.219Z,99242.47
2023-02-22T00:24:39.130Z,99240.31
2023-02-22T00:25:46.969Z,99243.69
2023-02-22T00:26:56.442Z,99244.75
2023-02-22T00:28:01.449Z,99242.31
2023-02-22T00:29:15.123Z,99245.00
2023-02-22T00:30:30.264Z,99247.00
2023-02-22T00:31:41.658Z,99237.06
2023-02-22T00:32:47.395Z,99239.56
2023-02-22T00:33:52.477Z,99242.31
2023-02-22T00:34:57.607Z,99243.06
2023-02-22T00:36:01.608Z,99249.38
2023-02-22T00:37:09.955Z,99246.75
2023-02-22T00:38:19.847Z,99245.78
2023-02-22T00:39:23.849Z,99238.72
2023-02-22T00:40:34.615Z,99251.00
2023-02-22T00:41:39.161Z,99257.69
2023-02-22T00:42:43.176Z,99256.00
2023-02-22T00:43:49.478Z,99252.81
2023-02-22T00:44:55.160Z,99253.66
2023-02-22T00:45:59.925Z,99257.44
2023-02-22T00:47:04.912Z,99256.31
2023-02-22T00:48:12.028Z,99254.34
2023-02-22T00:49:18.084Z,99256.91
2023-02-22T00:50:26.906Z,99253.50
2023-02-22T00:51:34.498Z,99251.81
2023-02-22T00:52:39.306Z,99248.13
2023-02-22T00:53:43.716Z,99250.69
2023-02-22T00:54:52.064Z,99261.53
2023-02-22T00:55:56.786Z,99262.38
2023-02-22T00:57:04.525Z,99256.16
2023-02-22T00:58:10.259Z,99260.50
2023-02-22T00:59:17.525Z,99258.63
2023-02-22T01:00:33.974Z,99248.91
2023-02-22T01:01:38.503Z,99264.78
2023-02-22T01:02:55.193Z,99259.28
2023-02-22T01:04:02.136Z,99268.06
2023-02-22T01:05:12.690Z,99262.19
2023-02-22T01:06:16.561Z,99261.09
2023-02-22T01:07:21.015Z,99267.13
2023-02-22T01:08:25.318Z,99261.66
2023-02-22T01:09:31.889Z,99256.38
2023-02-22T01:10:37.843Z,99262.50
2023-02-22T01:11:41.758Z,99265.25
2023-02-22T01:12:50.121Z,99268.75
2023-02-22T01:13:54.268Z,99266.00
2023-02-22T01:14:58.305Z,99266.19
2023-02-22T01:16:02.928Z,99268.34
2023-02-22T01:17:09.201Z,99270.81
2023-02-22T01:18:18.481Z,99269.78
2023-02-22T01:19:27.505Z,99265.25
2023-02-22T01:20:31.576Z,99272.41
2023-02-22T01:21:37.722Z,99267.13
2023-02-22T01:22:49.666Z,99262.63
2023-02-22T01:23:56.163Z,99259.78
2023-02-22T01:25:17.022Z,99267.59
2023-02-22T01:26:27.633Z,99265.25
2023-02-22T01:27:37.323Z,99271.47
2023-02-22T01:28:41.211Z,99266.38
2023-02-22T01:29:50.591Z,99269.88
2023-02-22T01:30:57.257Z,99264.69
2023-02-22T01:32:02.522Z,99262.03
2023-02-22T01:33:16.804Z,99264.56
2023-02-22T01:34:27.004Z,99264.84
2023-02-22T01:35:36.509Z,99262.38
2023-02-22T01:36:44.774Z,99269.38
2023-02-22T01:37:49.868Z,99266.13
2023-02-22T01:38:55.037Z,99265.47
2023-02-22T01:40:17.068Z,99266.66
2023-02-22T01:41:24.382Z,99260.28
2023-02-22T01:42:29.894Z,99264.59
2023-02-22T01:43:35.300Z,99271.59
2023-02-22T01:44:42.398Z,99267.06
2023-02-22T01:45:59.828Z,99262.72
2023-02-22T01:47:11.712Z,99263.47
2023-02-22T01:48:47.457Z,99259.03
2023-02-22T01:49:54.406Z,99267.84
2023-02-22T01:51:23.770Z,99262.56
2023-02-22T01:52:27.592Z,99262.56
2023-02-22T01:53:43.799Z,99261.66
2023-02-22T01:54:56.626Z,99265.34
2023-02-22T01:56:01.605Z,99264.50
2023-02-22T01:57:35.314Z,99266.97
2023-02-22T01:58:48.406Z,99264.25
2023-02-22T02:00:00.445Z,99254.53
2023-02-22T02:01:05.461Z,99261.44
2023-02-22T02:02:10.734Z,99259.03
2023-02-22T02:03:27.811Z,99250.13
2023-02-22T02:04:33.686Z,99257.94
2023-02-22T02:05:39.224Z,99258.03
2023-02-22T02:06:44.334Z,99262.38
2023-02-22T02:07:49.495Z,99258.81
2023-02-22T02:09:22.042Z,99263.13
2023-02-22T02:10:27.781Z,99254.34
2023-02-22T02:11:33.668Z,99257.00
2023-02-22T02:12:37.752Z,99253.41
2023-02-22T02:13:41.718Z,99252.75
2023-02-22T02:14:48.458Z,99247.38
2023-02-22T02:15:56.392Z,99252.56
2023-02-22T02:17:03.865Z,99249.91
2023-02-22T02:18:13.620Z,99265.88
2023-02-22T02:20:00.047Z,99259.56
2023-02-22T02:21:35.069Z,99253.50
2023-02-22T02:23:13.113Z,99253.34
2023-02-22T02:24:44.427Z,99256.00
2023-02-22T02:26:18.004Z,99252.47
2023-02-22T02:27:41.638Z,99255.03
2023-02-22T02:29:24.108Z,99257.75
2023-02-22T02:31:02.432Z,99259.47
2023-02-22T02:32:34.574Z,99263.03
2023-02-22T02:34:05.804Z,99262.47
2023-02-22T02:35:26.541Z,99260.59
2023-02-22T02:36:57.036Z,99258.81
2023-02-22T02:38:42.227Z,99263.34
2023-02-22T02:40:30.799Z,99264.09
2023-02-22T02:41:43.476Z,99262.28
2023-02-22T02:43:18.076Z,99262.47
2023-02-22T02:44:36.482Z,99258.13
2023-02-22T02:45:56.508Z,99264.41
2023-02-22T02:47:23.161Z,99271.28
2023-02-22T02:48:31.210Z,99271.38
2023-02-22T02:49:55.677Z,99270.50
2023-02-22T02:51:03.516Z,99271.38
2023-02-22T02:52:13.721Z,99266.75
2023-02-22T02:53:25.322Z,99264.03
2023-02-22T02:54:30.884Z,99267.72
2023-02-22T02:55:37.330Z,99267.88
2023-02-22T02:56:45.704Z,99267.72
2023-02-22T02:57:52.877Z,99264.88
2023-02-22T02:58:57.793Z,99267.50
2023-02-22T03:00:01.734Z,99270.06
2023-02-22T03:01:06.502Z,99267.34
2023-02-22T03:02:40.711Z,99271.78
2023-02-22T03:03:44.309Z,99267.25
2023-02-22T03:05:32.018Z,99268.09
2023-02-22T03:06:55.094Z,99272.53
2023-02-22T03:08:57.226Z,99277.06
2023-02-22T03:10:25.425Z,99278.78
2023-02-22T03:11:51.409Z,99282.28
2023-02-22T03:13:45.260Z,99279.88
2023-02-22T03:15:32.603Z,99279.13
2023-02-22T03:17:15.586Z,99281.19
2023-02-22T03:18:36.595Z,99280.03
2023-02-22T03:19:59.335Z,99281.03
2023-02-22T03:21:20.512Z,99284.19
2023-02-22T03:22:53.464Z,99281.38
2023-02-22T03:24:18.914Z,99281.09
2023-02-22T03:25:50.563Z,99287.50
2023-02-22T03:27:10.482Z,99285.72
2023-02-22T03:28:19.973Z,99274.28
2023-02-22T03:29:28.782Z,99280.25
2023-02-22T03:30:40.167Z,99290.06
2023-02-22T03:31:55.037Z,99285.13
2023-02-22T03:33:09.321Z,99287.69
2023-02-22T03:34:43.411Z,99282.69
2023-02-22T03:35:57.444Z,99285.97
2023-02-22T03:37:16.251Z,99290.59
2023-02-22T03:38:21.677Z,99282.69
2023-02-22T03:39:31.280Z,99288.97
2023-02-22T03:40:43.527Z,99279.09
2023-02-22T03:41:53.050Z,99285.81
2023-02-22T03:43:10.538Z,99283.94
2023-02-22T03:44:21.198Z,99289.97
2023-02-22T03:45:28.643Z,99284.03
2023-02-22T03:46:38.356Z,99286.56
2023-02-22T03:47:51.731Z,99283.94
2023-02-22T03:49:02.099Z,99293.47
2023-02-22T03:50:18.423Z,99285.44
2023-02-22T03:51:24.779Z,99283.06
2023-02-22T03:52:28.944Z,99287.31
2023-02-22T03:53:37.298Z,99289.81
2023-02-22T03:54:41.490Z,99291.41
2023-02-22T03:55:51.729Z,99287.06
2023-02-22T03:57:04.888Z,99293.09
2023-02-22T03:58:15.039Z,99293.22
2023-02-22T03:59:19.880Z,99293.22
2023-02-22T04:00:28.852Z,99295.66
2023-02-22T04:01:33.260Z,99282.53
2023-02-22T04:02:37.318Z,99295.50
2023-02-22T04:03:42.403Z,99300.69
2023-02-22T04:04:47.836Z,99294.81
2023-02-22T04:08:26.143Z,99301.78
2023-02-22T04:09:30.150Z,99294.06
2023-02-22T04:10:34.141Z,99297.34
2023-02-22T04:11:37.888Z,99298.13
2023-02-22T04:12:41.830Z,99295.31
2023-02-22T04:13:45.774Z,99299.94
2023-02-22T04:14:49.682Z,99300.69
2023-02-22T04:15:54.208Z,99301.63
2023-02-22T04:16:58.480Z,99301.63
2023-02-22T04:18:02.345Z,99298.03
2023-02-22T04:19:09.647Z,99302.38
2023-02-22T04:20:14.233Z,99299.94
2023-02-22T04:21:18.026Z,99300.69
2023-02-22T04:22:22.329Z,99299.84
2023-02-22T04:23:27.189Z,99299.75
2023-02-22T04:24:31.093Z,99295.31
2023-02-22T04:25:34.907Z,99301.44
2023-02-22T04:26:38.621Z,99296.25
2023-02-22T04:27:42.197Z,99300.50
2023-02-22T04:28:46.024Z,99299.56
2023-02-22T04:29:51.378Z,99297.00
2023-02-22T04:30:55.412Z,99308.44
2023-02-22T04:31:59.186Z,99305.78
2023-02-22T04:33:02.821Z,99299.66
2023-02-22T04:34:11.517Z,99298.03
2023-02-22T04:35:15.633Z,99298.25
2023-02-22T04:36:19.365Z,99299.94
2023-02-22T04:37:23.185Z,99298.03
2023-02-22T04:38:27.372Z,99295.59
2023-02-22T04:39:31.044Z,99302.47
2023-02-22T04:40:35.657Z,99299.09
2023-02-22T04:41:39.724Z,99303.53
2023-02-22T04:42:44.057Z,99296.59
2023-02-22T04:43:48.385Z,99290.56
2023-02-22T04:44:54.943Z,99294.81
2023-02-22T04:45:58.755Z,99295.66
2023-02-22T04:47:02.270Z,99295.00
2023-02-22T04:48:15.353Z,99300.28
2023-02-22T04:49:19.343Z,99302.19
2023-02-22T04:50:23.544Z,99301.28
2023-02-22T04:51:27.477Z,99304.72
2023-02-22T04:52:31.090Z,99307.38
2023-02-22T04:53:36.235Z,99298.59
2023-02-22T04:54:42.999Z,99301.97
2023-02-22T04:55:47.058Z,99300.19
2023-02-22T04:56:52.434Z,99296.88
2023-02-22T04:57:57.569Z,99304.97
2023-02-22T04:59:01.328Z,99308.38
2023-02-22T05:00:11.010Z,99299.53
2023-02-22T05:01:17.762Z,99301.13
2023-02-22T05:02:22.182Z,99303.69
2023-02-22T05:03:25.862Z,99307.28
2023-02-22T05:04:30.085Z,99313.31
2023-02-22T05:05:33.934Z,99308.03
2023-02-22T05:06:38.212Z,99310.97
2023-02-22T05:07:42.507Z,99307.47
2023-02-22T05:08:46.195Z,99303.88
2023-02-22T05:09:50.331Z,99299.59
2023-02-22T05:10:54.828Z,99306.59
2023-02-22T05:11:58.458Z,99296.28
2023-02-22T05:13:04.013Z,99302.34
2023-02-22T05:14:10.134Z,99298.94
2023-02-22T05:15:20.719Z,99295.34
2023-02-22T05:16:24.759Z,99295.53
2023-02-22T05:17:29.155Z,99297.25
2023-02-22T05:18:33.026Z,99295.44
2023-02-22T05:19:37.449Z,99294.59
2023-02-22T05:20:41.303Z,99305.19
2023-02-22T05:21:45.368Z,99295.44
2023-02-22T05:22:49.486Z,99300.63
2023-02-22T05:23:53.268Z,99304.13
2023-02-22T05:24:57.075Z,99298.19
2023-02-22T05:26:01.234Z,99303.53
2023-02-22T05:27:05.446Z,99308.66
2023-02-22T05:28:15.016Z,99310.47
2023-02-22T05:29:19.177Z,99311.41
2023-02-22T05:30:30.486Z,99314.03
2023-02-22T05:31:34.227Z,99311.41
2023-02-22T05:32:38.062Z,99317.59
2023-02-22T05:33:42.108Z,99313.25
2023-02-22T05:34:46.176Z,99324.78
2023-02-22T05:35:50.673Z,99318.84
2023-02-22T05:36:57.856Z,99322.31
2023-02-22T05:38:03.848Z,99312.59
2023-02-22T05:39:10.057Z,99313.44
2023-02-22T05:40:14.966Z,99318.00
2023-02-22T05:41:18.754Z,99327.63
2023-02-22T05:42:23.953Z,99320.63
2023-02-22T05:43:27.819Z,99324.03
2023-02-22T05:44:31.396Z,99317.88
2023-02-22T05:45:36.860Z,99316.19
2023-02-22T05:46:42.319Z,99321.47
2023-02-22T05:47:46.960Z,99319.78
2023-02-22T05:48:51.631Z,99320.63
2023-02-22T05:49:55.661Z,99327.72
2023-02-22T05:51:00.252Z,99328.47
2023-02-22T05:52:03.941Z,99331.97
2023-02-22T05:53:14.181Z,99328.47
2023-02-22T05:54:18.003Z,99331.97
2023-02-22T05:55:24.137Z,99332.06
2023-02-22T05:56:31.332Z,99334.69
2023-02-22T05:57:35.834Z,99338.34
2023-02-22T05:58:39.892Z,99339.19
2023-02-22T05:59:43.641Z,99345.53
2023-02-22T06:00:47.644Z,99351.91
2023-02-22T06:01:51.650Z,99351.16
2023-02-22T06:03:09.711Z,99350.16
2023-02-22T06:04:13.423Z,99352.84
2023-02-22T06:05:17.164Z,99357.19
2023-02-22T06:06:22.562Z,99353.63
2023-02-22T06:07:28.876Z,99351.84
2023-02-22T06:08:33.081Z,99347.31
2023-02-22T06:09:37.267Z,99352.94
2023-02-22T06:10:40.921Z,99352.00
2023-02-22T06:11:44.863Z,99356.28
2023-02-22T06:12:50.655Z,99359.78
2023-02-22T06:13:55.024Z,99367.19
2023-02-22T06:14:59.214Z,99359.84
2023-02-22T06:16:04.770Z,99367.59
2023-02-22T06:17:14.699Z,99366.56
2023-02-22T06:18:18.596Z,99368.28
2023-02-22T06:19:22.390Z,99364.78
2023-02-22T06:20:29.130Z,99363.78
2023-02-22T06:21:33.232Z,99364.63
2023-02-22T06:22:36.801Z,99368.03
2023-02-22T06:23:40.510Z,99372.38
2023-02-22T06:24:44.554Z,99376.03
2023-02-22T06:25:49.358Z,99368.97
2023-02-22T06:27:02.274Z,99369.72
2023-02-22T06:28:09.551Z,99372.28
2023-02-22T06:29:13.896Z,99376.72
2023-02-22T06:30:21.171Z,99372.22
2023-02-22T06:31:25.436Z,99369.56
2023-02-22T06:32:29.326Z,99372.97
2023-02-22T06:33:33.164Z,99373.06
2023-02-22T06:34:37.453Z,99377.41
2023-02-22T06:35:41.247Z,99375.72
2023-02-22T06:36:47.948Z,99381.16
2023-02-22T06:37:52.095Z,99377.41
2023-02-22T06:38:58.608Z,99377.41
2023-02-22T06:40:05.504Z,99382.59
2023-02-22T06:41:12.801Z,99379.97
2023-02-22T06:42:17.294Z,99381.56
2023-02-22T06:43:22.871Z,99384.31
2023-02-22T06:44:26.882Z,99381.50
2023-02-22T06:45:31.256Z,99378.84
2023-02-22T06:46:35.241Z,99385.00
2023-02-22T06:47:41.417Z,99385.75
2023-02-22T06:48:45.252Z,99383.97
2023-02-22T06:50:00.882Z,99390.00
2023-02-22T06:51:05.729Z,99389.91
2023-02-22T06:52:11.236Z,99389.75
2023-02-22T06:53:15.097Z,99385.31
2023-02-22T06:54:19.205Z,99386.91
2023-02-22T06:55:30.220Z,99390.34
2023-02-22T06:56:34.005Z,99389.50
2023-02-22T06:57:37.765Z,99392.16
2023-02-22T06:58:41.399Z,99391.19
2023-02-22T06:59:45.500Z,99393.78
2023-02-22T07:00:49.776Z,99391.91
2023-02-22T07:01:55.058Z,99391.72
2023-02-22T07:03:00.384Z,99398.63
2023-02-22T07:04:05.097Z,99388.06
2023-02-22T07:05:17.282Z,99397.69
2023-02-22T07:06:21.611Z,99395.78
2023-02-22T07:07:26.264Z,99386.25
2023-02-22T07:08:30.983Z,99394.19
2023-02-22T07:09:34.962Z,99399.38
2023-02-22T07:10:41.494Z,99395.03
2023-02-22T07:11:45.420Z,99387.19
2023-02-22T07:12:49.395Z,99395.78
2023-02-22T07:13:53.420Z,99394.88
2023-02-22T07:14:57.346Z,99393.09
2023-02-22T07:16:07.782Z,99394.69
2023-02-22T07:17:13.123Z,99389.22
2023-02-22T07:18:17.488Z,99390.16
2023-02-22T07:19:21.232Z,99391.78
2023-02-22T07:20:28.729Z,99394.34
2023-02-22T07:21:32.660Z,99400.28
2023-02-22T07:22:36.469Z,99400.38
2023-02-22T07:23:40.399Z,99399.63
2023-02-22T07:24:44.776Z,99394.34
2023-02-22T07:25:49.086Z,99402.09
2023-02-22T07:26:54.233Z,99402.28
2023-02-22T07:27:59.761Z,99398.69
2023-02-22T07:29:03.779Z,99405.69
2023-02-22T07:30:25.749Z,99401.06
2023-02-22T07:31:39.667Z,99403.63
2023-02-22T07:32:44.637Z,99408.91
2023-02-22T07:33:49.329Z,99401.94
2023-02-22T07:35:03.350Z,99402.50
2023-02-22T07:36:16.126Z,99403.44
2023-02-22T07:37:21.488Z,99403.88
2023-02-22T07:38:25.406Z,99407.22
2023-02-22T07:39:29.322Z,99404.56
2023-02-22T07:40:34.170Z,99407.56
2023-02-22T07:41:38.394Z,99404.56
2023-02-22T07:43:09.524Z,99401.72
2023-02-22T07:44:14.759Z,99398.69
2023-02-22T07:45:19.980Z,99412.84
2023-02-22T07:46:24.717Z,99401.94
2023-02-22T07:47:28.474Z,99398.91
2023-02-22T07:48:33.163Z,99400.63
2023-02-22T07:49:38.459Z,99398.03
2023-02-22T07:50:42.835Z,99405.06
2023-02-22T07:51:46.955Z,99396.25
2023-02-22T07:52:55.102Z,99405.53
2023-02-22T07:53:59.066Z,99406.06
2023-02-22T07:55:03.498Z,99399.78
2023-02-22T07:56:11.551Z,99401.97
2023-02-22T07:57:16.724Z,99395.72
2023-02-22T07:58:24.354Z,99404.31
2023-02-22T07:59:28.505Z,99398.88
2023-02-22T08:00:41.343Z,99402.06
2023-02-22T08:01:47.751Z,99402.75
2023-02-22T08:02:52.213Z,99404.44
2023-02-22T08:03:56.652Z,99403.16
2023-02-22T08:05:15.300Z,99402.41
2023-02-22T08:06:21.102Z,99407.69
2023-02-22T08:07:24.879Z,99404.25
2023-02-22T08:08:32.016Z,99411.81
2023-02-22T08:09:35.898Z,99409.00
2023-02-22T08:10:39.864Z,99410.69
2023-02-22T08:11:43.805Z,99406.00
2023-02-22T08:12:56.106Z,99402.19
2023-02-22T08:14:00.203Z,99405.91
2023-02-22T08:15:17.038Z,99407.41
2023-02-22T08:16:29.782Z,99403.16
2023-02-22T08:17:36.167Z,99403.44
2023-02-22T08:20:03.739Z,99403.91
2023-02-22T08:21:10.847Z,99406.53
2023-02-22T08:22:14.600Z,99409.09
2023-02-22T08:23:28.886Z,99415.78
2023-02-22T08:24:32.826Z,99409.50
2023-02-22T08:25:50.317Z,99406.91
2023-02-22T08:26:54.179Z,99409.97
2023-02-22T08:28:12.497Z,99405.44
2023-02-22T08:29:16.724Z,99410.34
2023-02-22T08:30:24.898Z,99410.69
2023-02-22T08:31:28.819Z,99413.84
2023-02-22T08:32:33.104Z,99409.50
2023-02-22T08:33:37.108Z,99414.88
2023-02-22T08:34:41.039Z,99415.34
2023-02-22T08:35:46.631Z,99409.78
2023-02-22T08:36:51.139Z,99415.00
2023-02-22T08:38:18.459Z,99414.81
2023-02-22T08:39:23.149Z,99406.22
2023-02-22T08:40:33.894Z,99407.75
2023-02-22T08:41:38.239Z,99410.75
2023-02-22T08:42:42.392Z,99413.47
2023-02-22T08:43:46.203Z,99405.09
2023-02-22T08:44:50.595Z,99413.03
2023-02-22T08:45:57.784Z,99405.63
2023-02-22T08:47:02.368Z,99408.38
2023-02-22T08:48:10.532Z,99408.00
2023-02-22T08:49:14.482Z,99412.94
2023-02-22T08:50:26.075Z,99410.38
2023-02-22T08:51:30.229Z,99416.13
2023-02-22T08:52:36.266Z,99412.16
2023-02-22T08:53:40.176Z,99416.13
2023-02-22T08:54:46.802Z,99419.44
2023-02-22T08:55:51.986Z,99412.25
2023-02-22T08:56:58.333Z,99416.44
2023-02-22T08:58:04.968Z,99417.91
2023-02-22T08:59:13.158Z,99417.75
2023-02-22T09:00:26.388Z,99417.06
2023-02-22T09:01:33.405Z,99421.34
2023-02-22T09:02:37.497Z,99417.75
2023-02-22T09:03:41.940Z,99410.53
2023-02-22T09:04:49.089Z,99410.63
2023-02-22T09:06:01.408Z,99412.56
2023-02-22T09:07:06.050Z,99414.78
2023-02-22T09:08:17.935Z,99414.06
2023-02-22T09:09:22.290Z,99416.53
2023-02-22T09:10:31.145Z,99421.53
2023-02-22T09:11:35.176Z,99419.66
2023-02-22T09:12:39.898Z,99408.63
2023-02-22T09:13:44.101Z,99416.31
2023-02-22T09:14:47.701Z,99403.44
2023-02-22T09:15:51.722Z,99417.06
2023-02-22T09:16:56.360Z,99417.16
2023-02-22T09:18:01.207Z,99419.81
2023-02-22T09:19:05.970Z,99412.81
2023-02-22T09:20:12.522Z,99422.38
2023-02-22T09:21:17.082Z,99421.34
2023-02-22T09:22:20.950Z,99418.59
2023-02-22T09:23:26.350Z,99421.72
2023-02-22T09:24:31.093Z,99425.59
2023-02-22T09:25:36.353Z,99421.16
2023-02-22T09:26:40.585Z,99425.50
2023-02-22T09:27:48.075Z,99419.66
2023-02-22T09:28:52.180Z,99427.41
2023-02-22T09:29:56.626Z,99420.09
2023-02-22T09:31:01.125Z,99429.09
2023-02-22T09:32:06.016Z,99423.22
2023-02-22T09:33:16.109Z,99422.94
2023-02-22T09:34:22.857Z,99422.09
2023-02-22T09:35:27.749Z,99418.88
2023-02-22T09:36:31.658Z,99419.94
2023-02-22T09:37:35.954Z,99418.34
2023-02-22T09:38:39.791Z,99419.84
2023-02-22T09:39:44.979Z,99418.41
2023-02-22T09:41:03.309Z,99423.53
2023-02-22T09:42:26.097Z,99419.84
2023-02-22T09:43:40.730Z,99416.91
2023-02-22T09:45:13.012Z,99413.59
2023-02-22T09:46:42.241Z,99414.16
2023-02-22T09:47:56.997Z,99405.25
2023-02-22T09:49:15.601Z,99414.06
2023-02-22T09:50:29.502Z,99413.41
2023-02-22T09:51:41.621Z,99411.59
2023-02-22T09:53:15.960Z,99413.59
2023-02-22T09:54:54.782Z,99413.19
2023-02-22T09:56:19.446Z,99417.56
2023-02-22T09:57:37.645Z,99421.06
2023-02-22T09:58:47.761Z,99411.75
2023-02-22T10:00:13.753Z,99411.59
2023-02-22T10:01:33.104Z,99416.41
2023-02-22T10:03:16.564Z,99421.16
2023-02-22T10:04:59.576Z,99411.97
2023-02-22T10:06:15.397Z,99405.69
2023-02-22T10:07:28.845Z,99408.34
2023-02-22T10:08:35.537Z,99402.94
2023-02-22T10:09:45.962Z,99412.53
2023-02-22T10:11:41.363Z,99405.03
2023-02-22T10:13:14.309Z,99410.34
2023-02-22T10:14:44.107Z,99407.16
2023-02-22T10:16:21.214Z,99402.69
2023-02-22T10:18:00.989Z,99401.25
2023-02-22T10:19:25.718Z,99402.78
2023-02-22T10:20:42.042Z,99407.13
2023-02-22T10:22:12.750Z,99400.19
2023-02-22T10:23:41.906Z,99400.41
2023-02-22T10:25:06.143Z,99398.03
2023-02-22T10:26:28.789Z,99404.47
2023-02-22T10:27:42.894Z,99395.00
2023-02-22T10:29:29.432Z,99402.47
2023-02-22T10:30:43.754Z,99395.28
2023-02-22T10:31:57.280Z,99391.66
2023-02-22T10:33:22.855Z,99392.38
2023-02-22T10:34:34.283Z,99394.34
2023-02-22T10:35:46.777Z,99396.09
2023-02-22T10:37:31.017Z,99396.09
2023-02-22T10:38:36.038Z,99386.94
2023-02-22T10:39:42.514Z,99395.16
2023-02-22T10:40:55.381Z,99392.41
2023-02-22T10:42:07.845Z,99389.31
2023-02-22T10:43:12.857Z,99393.03
2023-02-22T10:44:17.291Z,99396.44
2023-02-22T10:45:28.612Z,99394.69
2023-02-22T10:46:35.445Z,99391.91
2023-02-22T10:47:39.793Z,99394.81
2023-02-22T10:48:52.100Z,99401.22
2023-02-22T10:50:01.757Z,99391.44
2023-02-22T10:51:10.042Z,99393.91
2023-02-22T10:52:31.563Z,99388.66
2023-02-22T10:53:40.891Z,99389.56
2023-02-22T10:54:52.054Z,99392.53
2023-02-22T10:56:18.932Z,99388.81
2023-02-22T10:57:32.278Z,99387.72
2023-02-22T10:59:01.595Z,99383.38
2023-02-22T11:00:30.792Z,99387.66
2023-02-22T11:01:43.054Z,99389.47
2023-02-22T11:03:03.289Z,99394.22
2023-02-22T11:04:14.127Z,99388.50
2023-02-22T11:05:38.090Z,99387.00
2023-02-22T11:07:06.799Z,99386.47
2023-02-22T11:08:28.254Z,99392.44
2023-02-22T11:09:45.764Z,99384.03
2023-02-22T11:10:57.174Z,99391.75
2023-02-22T11:12:38.038Z,99384.25
2023-02-22T11:13:42.629Z,99384.09
2023-02-22T11:14:47.766Z,99390.03
2023-02-22T11:15:58.524Z,99387.38
2023-02-22T11:17:08.842Z,99377.16
2023-02-22T11:18:35.816Z,99388.22
2023-02-22T11:19:49.560Z,99380.38
2023-02-22T11:21:08.294Z,99381.84
2023-02-22T11:22:31.128Z,99379.72
2023-02-22T11:23:38.766Z,99388.53
2023-02-22T11:25:01.577Z,99380.78
2023-02-22T11:26:19.561Z,99383.94
2023-02-22T11:27:40.830Z,99391.72
2023-02-22T11:28:56.756Z,99384.03
2023-02-22T11:30:27.861Z,99387.09
2023-02-22T11:31:32.830Z,99383.91
2023-02-22T11:32:43.532Z,99386.00
2023-02-22T11:34:03.574Z,99381.09
2023-02-22T11:35:28.278Z,99381.47
2023-02-22T11:36:40.642Z,99376.13
2023-02-22T11:37:44.843Z,99379.97
2023-02-22T11:38:59.736Z,99380.56
2023-02-22T11:40:23.013Z,99375.91
2023-02-22T11:41:37.626Z,99380.19
2023-02-22T11:42:41.952Z,99380.06
2023-02-22T11:43:52.888Z,99382.63
2023-02-22T11:45:27.898Z,99383.47
2023-02-22T11:46:37.599Z,99372.78
2023-02-22T11:48:20.462Z,99384.25
2023-02-22T11:49:39.111Z,99377.34
2023-02-22T11:51:15.935Z,99375.84
2023-02-22T11:52:40.246Z,99381.16
2023-02-22T11:54:13.630Z,99374.84
2023-02-22T11:55:42.719Z,99380.00
2023-02-22T11:56:51.833Z,99381.03
2023-02-22T11:58:18.591Z,99378.06
2023-02-22T11:59:41.985Z,99375.72
2023-02-22T12:01:01.614Z,99380.59
2023-02-22T12:02:56.307Z,99374.56
2023-02-22T12:04:25.094Z,99376.00
2023-02-22T12:06:10.459Z,99374.25
2023-02-22T12:07:31.017Z,99370.41
2023-02-22T12:09:04.529Z,99372.72
2023-02-22T12:10:39.757Z,99369.00
2023-02-22T12:12:08.374Z,99370.41
2023-02-22T12:13:41.609Z,99367.44
2023-02-22T12:15:40.596Z,99369.75
2023-02-22T12:17:35.105Z,99365.63
2023-02-22T12:19:36.442Z,99364.44
2023-02-22T12:20:56.650Z,99369.25
2023-02-22T12:22:20.069Z,99361.78
2023-02-22T12:23:33.873Z,99358.97
2023-02-22T12:25:00.700Z,99362.03
2023-02-22T12:26:32.354Z,99359.00
2023-02-22T12:27:53.241Z,99365.28
2023-02-22T12:29:25.870Z,99366.00
2023-02-22T12:30:42.708Z,99357.03
2023-02-22T12:32:10.399Z,99361.78
2023-02-22T12:33:24.754Z,99357.03
2023-02-22T12:34:29.241Z,99354.94
2023-02-22T12:35:39.734Z,99358.81
2023-02-22T12:37:21.251Z,99361.59
2023-02-22T12:38:44.683Z,99359.88
2023-02-22T12:40:10.548Z,99354.03
2023-02-22T12:41:47.379Z,99365.38
2023-02-22T12:43:22.846Z,99359.22
2023-02-22T12:44:40.740Z,99357.22
2023-02-22T12:46:29.225Z,99354.22
2023-02-22T12:48:12.684Z,99358.56
2023-02-22T12:49:40.480Z,99347.13
2023-02-22T12:50:49.560Z,99358.50
2023-02-22T12:52:19.393Z,99350.78
2023-02-22T12:53:34.874Z,99355.63
2023-02-22T12:55:16.578Z,99362.84
2023-02-22T12:56:51.357Z,99359.47
2023-02-22T12:58:14.954Z,99354.28
2023-02-22T13:00:14.223Z,99356.47
2023-02-22T13:01:26.500Z,99354.41
2023-02-22T13:03:03.599Z,99358.06
2023-02-22T13:04:20.591Z,99356.47
2023-02-22T13:05:25.875Z,99351.00
2023-02-22T13:06:39.274Z,99358.19
2023-02-22T13:07:58.802Z,99351.91
2023-02-22T13:09:32.310Z,99352.47
2023-02-22T13:11:19.263Z,99349.81
2023-02-22T13:12:34.489Z,99349.94
2023-02-22T13:14:01.906Z,99346.44
2023-02-22T13:15:38.543Z,99355.25
2023-02-22T13:17:08.086Z,99352.78
2023-02-22T13:18:42.159Z,99347.00
2023-02-22T13:20:03.764Z,99355.13
2023-02-22T13:21:45.093Z,99351.75
2023-02-22T13:23:10.917Z,99346.84
2023-02-22T13:24:43.177Z,99352.59
2023-02-22T13:26:30.463Z,99355.41
2023-02-22T13:27:59.546Z,99351.38
2023-02-22T13:29:20.862Z,99354.47
2023-02-22T13:31:15.818Z,99360.06
2023-02-22T13:32:36.769Z,99357.22
2023-02-22T13:34:24.880Z,99353.06
2023-02-22T13:35:51.642Z,99356.81
2023-02-22T13:37:29.899Z,99349.69
2023-02-22T13:39:02.212Z,99359.91
2023-02-22T13:40:42.315Z,99354.63
2023-02-22T13:42:16.546Z,99356.84
2023-02-22T13:44:31.202Z,99362.03
2023-02-22T13:46:23.502Z,99366.56
2023-02-22T13:48:07.968Z,99359.03
2023-02-22T13:49:49.685Z,99358.81
2023-02-22T13:51:18.008Z,99354.38
2023-02-22T13:52:31.287Z,99366.16
2023-02-22T13:54:30.030Z,99363.00
2023-02-22T13:55:37.292Z,99359.69
2023-02-22T13:56:48.647Z,99361.47
2023-02-22T13:58:04.562Z,99363.91
2023-02-22T13:59:27.320Z,99357.53
2023-02-22T14:00:50.545Z,99356.84
2023-02-22T14:01:57.509Z,99360.41
2023-02-22T14:03:31.797Z,99358.44
2023-02-22T14:04:40.476Z,99360.97
2023-02-22T14:05:51.089Z,99365.91
2023-02-22T14:07:02.276Z,99364.75
2023-02-22T14:08:09.207Z,99355.75
2023-02-22T14:09:56.705Z,99354.78
2023-02-22T14:11:07.642Z,99356.47
2023-02-22T14:12:35.454Z,99357.44
2023-02-22T14:13:55.939Z,99364.66
2023-02-22T14:15:29.649Z,99358.50
2023-02-22T14:16:36.395Z,99359.34
2023-02-22T14:18:02.276Z,99365.03
2023-02-22T14:19:24.009Z,99352.75
2023-02-22T14:20:37.744Z,99363.81
2023-02-22T14:22:07.074Z,99357.28
2023-02-22T14:23:34.739Z,99362.03